Portada
METAR-TAF:

METAR-TAF

Aeropuertos :

Lyon, Francia

latitud: 45-43N, longitud: 004-57E, altitud: 200 m

Observación

El informe se hizo hace 21 minutos, a las 23:30 UTC
Viento 1 kt con dirección variable
Temperatura 4°C
Humedad 52%
Presión 1019 hPa
Visibilidad 10 km o más
sin nubes por debajo de 1500 m y sin presencia de cumulonimbus.

METAR: LFLY 312330Z AUTO VRB01KT CAVOK 04/M05 Q1019

Hora: 01:51 (23:51 UTC)


TAF: falta

Observaciones y pronósticos meteorológicos de más de 4000 aeropuertos (mensajes METAR y TAF).

Los puntos amarillos y rojos representan las estaciones disponibles.

Ponga el ratón en el punto deseado para ver el nombre de la estación.

Haga clic para ver las observaciones y los pronósticos meteorológicos.

Para cambiar el mapa : haga clic en los botones verdes con una cruz de color negro para hacer un zoom, en el botón verde con un guión para alejar o en las flechas verdes para mapas adyacentes.


METAR-TAF: